MMZH/ZIH METAR and TAF weather

Enter ICAO airport designator
Station Type Date Time Source
MMZH METAR 2019/06/18 12:43 UTC NOAA

MMZH 181243Z 00000KT 7SM BKN100 BKN250 28/24 A2989 RMK 8/032 HZY DSNT CB W


Station Type Date Time Source
MMZH Decoded METAR 2019/06/18 12:43 UTC NOAA

Ixtapa-Zihuatanejo, Mexico (MMZH) 17-36N 101-28W
Jun 18, 2019 - 08:43 AM EDT / 2019.06.18 1243 UTC
Wind: Calm:0
Visibility: 7 mile(s):0
Sky conditions: mostly cloudy
Weather: Cumulonimbus clouds observed
Temperature: 82 F (28 C)
Dew Point: 75 F (24 C)
Relative Humidity: 78%
Pressure (altimeter): 29.89 in. Hg (1012 hPa)
ob: MMZH 181243Z 00000KT 7SM BKN100 BKN250 28/24 A2989 RMK 8/032 HZY DSNT CB W
cycle: 12

Station Type Date Time Source
MMZH TAF 2019/06/18 06:10 UTC NOAA

TAF MMZH 180503Z 1806/1906 00000KT 6SM HZ SCT020 SCT090 BKN250
TEMPO 1812/1815 6SM -RA BKN015CB
FM181800 23010KT P6SM SCT020 SCT200
TEMPO 1822/1902 BKN020CB
FM190300 23005KT 6SM HZ SCT020 BKN200

Example: see airport list